Time;durP1;ratioP1;P1;durP2;ratioP2;P2;SDS_P1;SDS_P2;PMS_P1;PMS_P2;Temp;Humidity;BMP_temperature;BMP_pressure;BME280_temperature;BME280_humidity;BME280_pressure;Samples;Min_cycle;Max_cycle;Signal;HPM_P1;HPM_P2
2023/09/11 00:01:34;;;;;;;12.60;3.13;;;;;;;19.26;52.67;95613.09;4991114;28;20033;-84
2023/09/11 00:04:00;;;;;;;8.13;3.80;;;;;;;18.79;52.88;95549.53;4989586;28;20140;-83
2023/09/11 00:06:25;;;;;;;7.50;2.75;;;;;;;19.06;53.24;95594.13;5013556;28;20044;-84
2023/09/11 00:08:51;;;;;;;7.35;2.97;;;;;;;18.72;53.12;95547.31;4995218;28;20048;-83
2023/09/11 00:11:17;;;;;;;13.73;3.30;;;;;;;19.12;53.27;95607.09;4995702;28;20042;-83
2023/09/11 00:13:43;;;;;;;10.43;2.72;;;;;;;19.28;53.07;95640.47;4983382;28;20237;-83
2023/09/11 00:16:08;;;;;;;8.13;2.78;;;;;;;19.14;53.34;95634.44;4988998;28;20069;-85
2023/09/11 00:18:33;;;;;;;10.55;2.90;;;;;;;19.03;53.21;95600.91;5017468;28;20029;-87
2023/09/11 00:20:59;;;;;;;9.40;3.28;;;;;;;18.96;53.55;95600.59;5034527;28;20088;-86
2023/09/11 00:23:25;;;;;;;5.82;2.83;;;;;;;18.93;53.56;95587.00;5033196;28;20130;-87
2023/09/11 00:25:50;;;;;;;9.32;2.80;;;;;;;19.31;53.38;95648.97;5016279;28;20017;-87
2023/09/11 00:28:16;;;;;;;6.60;2.55;;;;;;;18.58;53.33;95519.03;5015629;28;20037;-87
2023/09/11 00:30:42;;;;;;;14.90;3.13;;;;;;;18.23;53.64;95485.97;5033908;28;20041;-87
2023/09/11 00:33:08;;;;;;;7.95;3.50;;;;;;;19.07;54.12;95626.03;5016416;28;20030;-87
2023/09/11 00:35:33;;;;;;;8.15;2.80;;;;;;;18.63;54.27;95588.72;5034014;28;20097;-87
2023/09/11 00:37:59;;;;;;;7.45;2.88;;;;;;;17.57;54.39;95424.22;5016920;28;20022;-87
2023/09/11 00:40:25;;;;;;;8.65;2.53;;;;;;;18.99;54.13;95640.31;5017054;28;20054;-87
2023/09/11 00:42:50;;;;;;;8.60;2.88;;;;;;;18.67;54.19;95598.53;5018523;28;20058;-86
2023/09/11 00:45:16;;;;;;;8.40;2.38;;;;;;;18.89;54.37;95636.00;5026561;28;20022;-87
2023/09/11 00:47:45;;;;;;;10.05;3.40;;;;;;;18.91;54.42;95624.16;5026082;28;20065;-87
2023/09/11 00:50:13;;;;;;;10.13;3.03;;;;;;;18.00;54.27;95475.31;5017886;28;20026;-87
2023/09/11 00:52:39;;;;;;;6.78;2.67;;;;;;;18.44;54.53;95560.22;5016536;28;20010;-87
2023/09/11 00:55:07;;;;;;;5.00;2.08;;;;;;;18.93;54.27;95630.78;5005803;28;20033;-87
2023/09/11 00:57:33;;;;;;;13.02;2.55;;;;;;;18.68;53.79;95567.88;5026013;28;20037;-87
2023/09/11 00:59:58;;;;;;;15.30;3.25;;;;;;;18.95;54.23;95623.22;5034799;28;20046;-87
2023/09/11 01:02:24;;;;;;;6.30;2.58;;;;;;;18.86;54.37;95623.19;5016290;28;20054;-87
2023/09/11 01:04:50;;;;;;;9.88;2.88;;;;;;;18.69;54.70;95601.66;5049830;28;20042;-87
2023/09/11 01:07:17;;;;;;;10.75;3.00;;;;;;;18.75;54.36;95602.34;5040707;28;20109;-87
2023/09/11 01:09:42;;;;;;;6.25;2.30;;;;;;;18.97;54.13;95621.00;5040771;28;20034;-87
2023/09/11 01:12:08;;;;;;;7.18;3.20;;;;;;;18.28;54.19;95523.38;5040657;28;20064;-87
2023/09/11 01:14:37;;;;;;;6.82;2.90;;;;;;;18.92;54.28;95615.75;5040509;28;20042;-87
2023/09/11 01:17:13;;;;;;;10.93;3.45;;;;;;;18.71;54.43;95574.50;5039929;28;20098;-87
2023/09/11 01:19:54;;;;;;;8.27;2.90;;;;;;;18.88;54.30;95606.75;5040361;28;20040;-87
2023/09/11 01:22:49;;;;;;;10.27;2.75;;;;;;;18.84;54.45;95617.34;5028151;28;20038;-88
2023/09/11 01:25:34;;;;;;;13.60;3.22;;;;;;;18.83;54.53;95621.16;5037186;28;20076;-87
2023/09/11 01:28:31;;;;;;;6.80;2.38;;;;;;;18.85;54.51;95618.91;5050441;23;20546;-75
2023/09/11 01:30:59;;;;;;;6.35;2.63;;;;;;;18.68;55.04;95623.50;5028729;28;20574;-75
2023/09/11 01:33:24;;;;;;;13.80;2.60;;;;;;;18.64;55.25;95620.63;5044656;28;20036;-75
2023/09/11 01:35:50;;;;;;;5.05;2.05;;;;;;;18.64;55.00;95627.91;5062852;28;20033;-76
2023/09/11 01:38:17;;;;;;;4.65;2.40;;;;;;;18.58;55.16;95613.03;5063423;28;20083;-76
2023/09/11 01:40:45;;;;;;;5.78;2.25;;;;;;;18.35;55.06;95577.41;5045078;28;20527;-76
2023/09/11 01:43:13;;;;;;;9.70;2.53;;;;;;;18.55;54.99;95595.63;5062208;28;20508;-75
2023/09/11 01:45:40;;;;;;;10.55;2.60;;;;;;;18.54;55.09;95606.69;5063477;28;20029;-76
2023/09/11 01:48:07;;;;;;;9.38;3.33;;;;;;;18.56;55.00;95602.59;5061030;28;20475;-76
2023/09/11 01:50:35;;;;;;;4.68;2.03;;;;;;;18.58;55.05;95608.47;5063119;28;20040;-75
2023/09/11 01:53:02;;;;;;;6.85;2.70;;;;;;;18.43;55.36;95606.19;5064013;28;20443;-76
2023/09/11 01:55:28;;;;;;;6.22;2.25;;;;;;;18.31;55.19;95579.94;5062036;28;20089;-75
2023/09/11 01:57:55;;;;;;;10.55;2.80;;;;;;;18.32;55.26;95586.09;5061430;28;20025;-76
2023/09/11 02:00:20;;;;;;;5.13;2.45;;;;;;;18.36;55.10;95582.47;5062508;28;20035;-76
2023/09/11 02:02:51;;;;;;;9.00;2.70;;;;;;;18.48;55.36;95617.56;5062717;28;20048;-76
2023/09/11 02:05:17;;;;;;;9.35;2.60;;;;;;;18.41;55.19;95609.19;5063651;28;20035;-75
2023/09/11 02:07:42;;;;;;;9.20;2.75;;;;;;;18.45;55.01;95606.69;5045531;28;20024;-75
2023/09/11 02:10:09;;;;;;;15.32;2.60;;;;;;;18.36;55.34;95600.50;5045298;28;20036;-75
2023/09/11 02:12:34;;;;;;;10.55;2.65;;;;;;;18.51;55.16;95608.91;5044982;28;20037;-75
2023/09/11 02:15:00;;;;;;;6.47;2.80;;;;;;;18.47;54.99;95599.88;5045172;28;20498;-75
2023/09/11 02:17:25;;;;;;;10.55;2.53;;;;;;;18.48;54.88;95606.03;5062257;28;20723;-76
2023/09/11 02:19:50;;;;;;;10.75;2.63;;;;;;;18.27;55.27;95581.66;5044910;28;20623;-75
2023/09/11 02:22:16;;;;;;;7.97;2.63;;;;;;;18.46;55.24;95614.41;5063109;28;20123;-76
2023/09/11 02:24:41;;;;;;;5.40;2.47;;;;;;;17.96;55.30;95544.16;5063455;28;20138;-75
2023/09/11 02:27:07;;;;;;;10.95;2.72;;;;;;;18.32;55.49;95603.00;5061213;28;20092;-75
2023/09/11 02:29:32;;;;;;;9.15;2.58;;;;;;;18.28;55.41;95599.34;5063030;28;20029;-77
2023/09/11 02:31:58;;;;;;;20.48;2.92;;;;;;;17.96;55.27;95548.72;5063302;28;20052;-75
2023/09/11 02:34:23;;;;;;;7.85;2.65;;;;;;;17.97;55.48;95553.78;5044279;28;20045;-75
2023/09/11 02:36:49;;;;;;;4.13;1.95;;;;;;;17.86;55.78;95543.63;5043866;28;20584;-76
2023/09/11 02:39:14;;;;;;;11.48;2.35;;;;;;;17.89;55.72;95556.44;5062060;22;20424;-82
2023/09/11 02:41:39;;;;;;;10.15;2.65;;;;;;;17.90;56.05;95563.38;5025536;28;20045;-82
2023/09/11 02:44:06;;;;;;;12.82;2.38;;;;;;;17.73;56.05;95543.44;5043381;28;20037;-81
2023/09/11 02:46:31;;;;;;;5.65;2.25;;;;;;;17.98;56.08;95592.94;5026173;28;20131;-81
2023/09/11 02:48:56;;;;;;;3.63;1.92;;;;;;;17.92;56.29;95588.81;5044372;28;20044;-81
2023/09/11 02:51:22;;;;;;;9.93;2.67;;;;;;;17.96;56.28;95595.13;5042739;28;20030;-82
2023/09/11 02:53:47;;;;;;;7.43;2.40;;;;;;;17.74;56.47;95569.16;5023494;28;20057;-81
2023/09/11 02:56:13;;;;;;;7.63;2.25;;;;;;;17.84;56.45;95575.38;5025693;28;20034;-82
2023/09/11 02:58:38;;;;;;;10.20;2.55;;;;;;;17.48;56.71;95530.66;5043326;28;20748;-82
2023/09/11 03:01:04;;;;;;;8.13;2.17;;;;;;;17.93;56.71;95597.63;5026245;28;20037;-83
2023/09/11 03:03:33;;;;;;;9.23;2.80;;;;;;;17.85;56.99;95599.19;5044156;28;20029;-82
2023/09/11 03:06:00;;;;;;;9.55;2.97;;;;;;;17.86;56.89;95595.41;5042958;28;20499;-82
2023/09/11 03:08:26;;;;;;;6.30;2.83;;;;;;;17.70;56.76;95578.13;5026100;28;20087;-82
2023/09/11 03:10:52;;;;;;;12.30;2.80;;;;;;;17.46;56.86;95546.28;5007237;28;20053;-82
2023/09/11 03:13:18;;;;;;;11.88;2.92;;;;;;;17.68;56.69;95569.63;5023363;28;20044;-82
2023/09/11 03:15:43;;;;;;;8.88;2.40;;;;;;;17.68;56.91;95574.97;5025702;28;20030;-82
2023/09/11 03:18:09;;;;;;;9.23;2.53;;;;;;;17.69;57.14;95596.13;5024752;28;20033;-81
2023/09/11 03:20:35;;;;;;;5.28;2.42;;;;;;;17.65;57.30;95589.78;5024773;28;20033;-82
2023/09/11 03:23:00;;;;;;;6.70;2.75;;;;;;;17.39;57.31;95550.50;5042483;28;20538;-82
2023/09/11 03:25:26;;;;;;;12.27;3.10;;;;;;;17.43;57.62;95572.91;5024672;28;20037;-82
2023/09/11 03:27:52;;;;;;;7.75;2.13;;;;;;;17.58;57.78;95596.66;5042978;28;20057;-82
2023/09/11 03:30:18;;;;;;;7.93;2.78;;;;;;;17.42;58.13;95590.88;5040339;28;20076;-82
2023/09/11 03:32:43;;;;;;;6.95;2.55;;;;;;;17.28;58.18;95574.06;5024431;28;20025;-82
2023/09/11 03:35:09;;;;;;;9.95;2.85;;;;;;;17.16;58.28;95550.53;5042067;28;20029;-82
2023/09/11 03:37:35;;;;;;;11.38;2.30;;;;;;;17.31;58.36;95582.31;5023374;28;20030;-82
2023/09/11 03:40:06;;;;;;;8.65;1.90;;;;;;;17.40;58.49;95598.44;5041750;28;20029;-82
2023/09/11 03:42:31;;;;;;;5.77;2.47;;;;;;;17.45;58.37;95594.84;5023524;28;20124;-82
2023/09/11 03:44:57;;;;;;;9.90;2.25;;;;;;;17.21;58.51;95561.13;5035148;28;20040;-81
2023/09/11 03:47:22;;;;;;;5.57;2.00;;;;;;;17.12;58.23;95551.44;5038921;28;20021;-80
2023/09/11 03:49:47;;;;;;;6.93;2.55;;;;;;;17.24;58.50;95575.81;5055872;28;20052;-80
2023/09/11 03:52:13;;;;;;;6.75;2.42;;;;;;;17.37;58.54;95582.97;5038437;28;20083;-81
2023/09/11 03:54:39;;;;;;;7.22;3.05;;;;;;;17.47;58.01;95595.34;5056008;28;20017;-81
2023/09/11 03:57:04;;;;;;;7.88;2.60;;;;;;;16.98;58.25;95519.34;5038872;28;20082;-81
2023/09/11 03:59:30;;;;;;;7.93;3.15;;;;;;;17.38;58.21;95586.44;5041171;28;20022;-80
2023/09/11 04:01:55;;;;;;;11.15;3.40;;;;;;;17.48;58.19;95603.06;5051831;28;20061;-80
2023/09/11 04:04:20;;;;;;;13.13;4.05;;;;;;;17.28;58.29;95582.13;5038714;28;20037;-81
2023/09/11 04:06:46;;;;;;;15.07;4.60;;;;;;;17.20;58.79;95583.66;5023888;28;20013;-81
2023/09/11 04:09:11;;;;;;;11.82;3.97;;;;;;;17.27;58.42;95591.25;5033246;28;20093;-81
2023/09/11 04:11:37;;;;;;;18.42;4.25;;;;;;;17.16;58.68;95574.66;5055590;28;20041;-81
2023/09/11 04:14:02;;;;;;;14.13;4.35;;;;;;;17.25;58.71;95594.25;5038275;28;20018;-81
2023/09/11 04:16:27;;;;;;;17.00;4.30;;;;;;;17.20;59.04;95594.38;5038625;28;20025;-80
2023/09/11 04:18:53;;;;;;;12.35;4.03;;;;;;;17.38;58.63;95607.91;5038438;28;20026;-81
2023/09/11 04:21:19;;;;;;;19.23;4.82;;;;;;;17.16;58.96;95592.63;5055883;28;20044;-81
2023/09/11 04:23:45;;;;;;;13.40;3.80;;;;;;;17.33;58.77;95600.75;5055388;28;20025;-81
2023/09/11 04:26:10;;;;;;;14.82;4.97;;;;;;;17.11;59.22;95595.41;5038083;28;20056;-80
2023/09/11 04:28:37;;;;;;;14.73;4.28;;;;;;;17.27;59.05;95607.34;5025847;28;20026;-80
2023/09/11 04:31:02;;;;;;;14.68;4.47;;;;;;;17.20;59.11;95599.72;5046863;28;20029;-81
2023/09/11 04:33:28;;;;;;;15.30;5.15;;;;;;;17.32;59.13;95610.69;5035368;28;20030;-82
2023/09/11 04:35:53;;;;;;;10.57;4.75;;;;;;;17.36;59.08;95611.66;5010838;28;20248;-82
2023/09/11 04:38:19;;;;;;;12.88;4.78;;;;;;;17.17;58.92;95575.41;5013812;28;20566;-82
2023/09/11 04:40:45;;;;;;;13.07;3.95;;;;;;;17.31;58.92;95608.31;5040446;28;20399;-82
2023/09/11 04:43:10;;;;;;;9.27;3.33;;;;;;;17.10;58.92;95580.41;5022564;28;20056;-82
2023/09/11 04:45:35;;;;;;;7.78;3.00;;;;;;;17.04;58.57;95565.56;5040690;28;20060;-82
2023/09/11 04:48:01;;;;;;;11.07;2.35;;;;;;;17.35;58.45;95626.16;5023185;28;20029;-82
2023/09/11 04:50:26;;;;;;;9.40;2.72;;;;;;;17.19;58.73;95594.66;5041636;28;20087;-82
2023/09/11 04:52:55;;;;;;;6.28;2.72;;;;;;;16.79;58.74;95538.25;5039572;28;20033;-82
2023/09/11 04:55:21;;;;;;;5.53;2.53;;;;;;;17.24;58.85;95608.72;5039681;28;20091;-82
2023/09/11 04:57:46;;;;;;;7.45;3.15;;;;;;;17.28;58.71;95611.59;5021564;28;20034;-82
2023/09/11 05:00:13;;;;;;;6.68;2.45;;;;;;;17.14;58.52;95584.88;5038697;28;20032;-82
2023/09/11 05:02:40;;;;;;;18.65;3.22;;;;;;;17.19;58.61;95587.41;5028894;28;20034;-82
2023/09/11 05:05:05;;;;;;;10.15;2.40;;;;;;;16.88;58.61;95563.22;5016302;28;20057;-81
2023/09/11 05:07:31;;;;;;;8.13;2.38;;;;;;;17.21;58.20;95593.28;5020386;28;20037;-82
2023/09/11 05:09:57;;;;;;;13.35;2.20;;;;;;;17.07;58.16;95568.44;5038820;28;20037;-82
2023/09/11 05:12:22;;;;;;;17.08;2.83;;;;;;;17.29;58.32;95600.59;5041690;28;20357;-82
2023/09/11 05:14:48;;;;;;;13.25;3.28;;;;;;;17.12;57.94;95556.78;5035946;28;20041;-82
2023/09/11 05:17:13;;;;;;;22.60;3.45;;;;;;;17.43;57.67;95597.81;5016172;28;20060;-82
2023/09/11 05:19:39;;;;;;;10.60;2.95;;;;;;;17.41;57.81;95591.19;5006704;28;20085;-82
2023/09/11 05:22:04;;;;;;;9.32;2.40;;;;;;;17.49;57.60;95596.59;5006869;28;20180;-81
2023/09/11 05:24:31;;;;;;;7.15;2.72;;;;;;;17.48;57.58;95595.00;5032214;28;20048;-81
2023/09/11 05:26:57;;;;;;;9.43;2.80;;;;;;;17.63;57.55;95599.22;5019733;28;20491;-81
2023/09/11 05:29:22;;;;;;;13.73;3.38;;;;;;;17.53;57.17;95578.03;5015796;28;20053;-82
2023/09/11 05:31:48;;;;;;;5.75;2.97;;;;;;;17.67;57.31;95608.25;5013399;28;20520;-81
2023/09/11 05:34:14;;;;;;;23.15;2.75;;;;;;;17.59;57.36;95599.03;5028694;28;20037;-81
2023/09/11 05:36:39;;;;;;;9.77;2.97;;;;;;;17.58;57.26;95596.66;5000277;28;20104;-81
2023/09/11 05:39:05;;;;;;;12.05;3.05;;;;;;;17.68;57.38;95605.28;4992511;28;20069;-81
2023/09/11 05:41:31;;;;;;;16.88;3.65;;;;;;;17.52;57.58;95584.47;4991439;28;20040;-80
2023/09/11 05:43:56;;;;;;;9.98;3.80;;;;;;;17.80;57.27;95614.63;5005281;28;20606;-81
2023/09/11 05:46:22;;;;;;;9.05;3.13;;;;;;;17.74;57.22;95614.75;5003236;28;20073;-81
2023/09/11 05:48:47;;;;;;;10.18;3.47;;;;;;;17.77;57.25;95613.38;5015223;28;20028;-81
2023/09/11 05:51:14;;;;;;;16.50;3.72;;;;;;;17.78;57.31;95598.03;5009766;28;20034;-81
2023/09/11 05:53:39;;;;;;;8.65;3.10;;;;;;;17.61;57.42;95596.06;5011878;28;20249;-81
2023/09/11 05:56:05;;;;;;;12.15;3.38;;;;;;;17.68;57.30;95605.28;5011262;28;20092;-81
2023/09/11 05:58:30;;;;;;;10.40;3.10;;;;;;;17.85;57.23;95614.50;5007353;28;20381;-81
2023/09/11 06:00:56;;;;;;;11.27;3.50;;;;;;;17.80;56.97;95599.31;5005561;28;20120;-81
2023/09/11 06:03:21;;;;;;;13.55;3.60;;;;;;;17.71;57.38;95593.13;5015935;28;20083;-81
2023/09/11 06:05:47;;;;;;;10.50;3.92;;;;;;;17.93;57.07;95601.09;5017196;28;20538;-81
2023/09/11 06:08:13;;;;;;;11.85;3.75;;;;;;;17.78;57.06;95574.69;5011123;28;20057;-81
2023/09/11 06:10:39;;;;;;;8.75;3.72;;;;;;;17.79;57.20;95605.00;5020635;28;20080;-81
2023/09/11 06:13:07;;;;;;;12.07;3.13;;;;;;;17.82;57.09;95594.44;4992026;28;22368;-81
2023/09/11 06:15:32;;;;;;;7.82;3.22;;;;;;;17.73;56.86;95566.78;5009612;28;20033;-81
2023/09/11 06:17:58;;;;;;;7.05;2.90;;;;;;;17.73;56.64;95558.75;5025725;28;20096;-81
2023/09/11 06:20:24;;;;;;;8.55;3.20;;;;;;;18.19;56.55;95620.00;5008193;28;20036;-81
2023/09/11 06:22:50;;;;;;;13.52;3.45;;;;;;;18.15;56.26;95610.22;5006904;28;20450;-81
2023/09/11 06:25:15;;;;;;;14.38;3.33;;;;;;;18.22;56.19;95605.19;5024961;28;20053;-81
2023/09/11 06:27:41;;;;;;;8.50;2.70;;;;;;;18.22;56.12;95610.56;5030258;28;21396;-81
2023/09/11 06:30:07;;;;;;;8.73;2.97;;;;;;;18.17;55.97;95611.47;5002565;28;20033;-80
2023/09/11 06:32:33;;;;;;;11.23;3.42;;;;;;;17.96;56.10;95597.81;5023674;28;20032;-81
2023/09/11 06:34:59;;;;;;;8.85;2.90;;;;;;;17.91;55.90;95579.19;5014012;28;20102;-81
2023/09/11 06:37:24;;;;;;;12.48;3.35;;;;;;;18.15;56.01;95616.38;5032775;28;20079;-81
2023/09/11 06:39:50;;;;;;;9.38;3.72;;;;;;;18.31;55.78;95617.50;5011842;28;20048;-80
2023/09/11 06:42:24;;;;;;;8.05;2.30;;;;;;;18.37;55.78;95618.97;5027868;28;20037;-81
2023/09/11 06:44:51;;;;;;;11.32;3.30;;;;;;;18.39;55.81;95624.81;4998857;28;20400;-81
2023/09/11 06:47:17;;;;;;;9.20;3.33;;;;;;;18.34;55.51;95610.75;5006060;28;20044;-82
2023/09/11 06:49:42;;;;;;;9.35;3.63;;;;;;;18.25;55.26;95599.97;5007114;28;20033;-82
2023/09/11 06:52:08;;;;;;;11.00;3.35;;;;;;;18.48;55.31;95622.94;5007784;28;20053;-82
2023/09/11 06:54:33;;;;;;;12.77;4.30;;;;;;;18.55;55.33;95625.16;5019724;28;20034;-81
2023/09/11 06:56:59;;;;;;;8.05;3.15;;;;;;;18.41;55.27;95587.69;5009068;28;20400;-82
2023/09/11 06:59:24;;;;;;;10.25;3.38;;;;;;;18.33;55.18;95563.50;5033136;28;20093;-81
2023/09/11 07:01:50;;;;;;;14.20;3.70;;;;;;;18.49;54.87;95568.13;5039890;28;20049;-81
2023/09/11 07:04:17;;;;;;;16.77;3.47;;;;;;;18.72;55.23;95611.81;5032566;22;20045;-78
2023/09/11 07:06:42;;;;;;;10.30;2.60;;;;;;;18.43;54.38;95564.00;5019082;28;20029;-78
2023/09/11 07:09:08;;;;;;;5.68;2.63;;;;;;;18.77;54.39;95629.66;5017679;28;20729;-78
2023/09/11 07:11:34;;;;;;;11.30;3.67;;;;;;;18.57;54.43;95571.16;5018214;28;20479;-79
2023/09/11 07:14:00;;;;;;;9.43;3.60;;;;;;;18.74;53.95;95587.31;5033647;28;20112;-78
2023/09/11 07:16:26;;;;;;;10.45;2.67;;;;;;;18.87;54.33;95591.75;5020772;28;20039;-78
2023/09/11 07:18:52;;;;;;;121.07;8.93;;;;;;;18.82;54.25;95570.41;5019944;28;20029;-81
2023/09/11 07:21:17;;;;;;;928.08;96.13;;;;;;;19.05;54.22;95606.78;5028624;28;20029;-81
2023/09/11 07:23:43;;;;;;;11.93;3.42;;;;;;;19.14;53.72;95602.19;5029845;28;20495;-79
2023/09/11 07:26:08;;;;;;;8.88;3.03;;;;;;;19.12;53.38;95582.88;5040042;28;20114;-78
2023/09/11 07:29:02;;;;;;;6.97;2.63;;;;;;;19.36;53.44;95606.59;5015296;28;20049;-80
2023/09/11 07:31:28;;;;;;;12.98;3.33;;;;;;;19.32;53.06;95584.13;5020165;28;20032;-79
2023/09/11 07:33:54;;;;;;;12.48;3.00;;;;;;;19.39;52.64;95583.63;5021623;28;20044;-79
2023/09/11 07:36:20;;;;;;;6.63;2.53;;;;;;;19.57;52.30;95602.16;5022743;28;20121;-78
2023/09/11 07:38:45;;;;;;;7.07;2.75;;;;;;;19.49;52.19;95581.44;5021364;28;20025;-78
2023/09/11 07:41:13;;;;;;;9.73;2.95;;;;;;;19.63;52.00;95597.38;5040633;28;20596;-77
2023/09/11 07:43:39;;;;;;;10.43;3.95;;;;;;;19.78;51.57;95598.78;5040400;28;20052;-79
2023/09/11 07:46:04;;;;;;;20.90;3.28;;;;;;;19.63;51.41;95573.19;5045746;28;20029;-79
2023/09/11 07:48:30;;;;;;;11.02;2.83;;;;;;;19.78;51.19;95599.56;5025365;28;20096;-78
2023/09/11 07:50:56;;;;;;;11.68;3.53;;;;;;;19.76;51.19;95585.63;5040633;28;20094;-78
2023/09/11 07:53:22;;;;;;;10.20;3.00;;;;;;;19.57;51.01;95582.53;5036043;28;20488;-79
2023/09/11 07:55:48;;;;;;;10.98;3.20;;;;;;;19.77;50.95;95591.81;5041550;28;20024;-79
2023/09/11 07:58:14;;;;;;;8.27;2.88;;;;;;;19.40;50.44;95539.50;5033882;28;20036;-79
2023/09/11 08:00:39;;;;;;;10.98;3.47;;;;;;;19.35;50.24;95505.50;5045202;28;20557;-79
2023/09/11 08:03:05;;;;;;;5.68;2.67;;;;;;;19.49;49.60;95527.66;5031000;28;20033;-80
2023/09/11 08:05:30;;;;;;;14.73;3.53;;;;;;;19.78;49.01;95574.56;5031305;28;20052;-78
2023/09/11 08:07:58;;;;;;;11.40;4.03;;;;;;;19.83;48.79;95548.28;5042066;28;21118;-78
2023/09/11 08:10:24;;;;;;;9.75;3.38;;;;;;;20.01;49.19;95579.38;5019243;28;20056;-79
2023/09/11 08:12:49;;;;;;;11.48;4.05;;;;;;;19.96;49.00;95552.66;5046080;28;20717;-78
2023/09/11 08:15:14;;;;;;;12.20;4.20;;;;;;;20.13;48.90;95562.56;5041386;28;20039;-79
2023/09/11 08:17:40;;;;;;;11.50;3.58;;;;;;;19.89;48.94;95520.06;5047774;28;20036;-78
2023/09/11 08:20:06;;;;;;;8.50;3.22;;;;;;;20.11;48.39;95542.44;5026472;28;20029;-80
2023/09/11 08:22:32;;;;;;;11.27;3.30;;;;;;;20.31;47.42;95547.88;5031240;28;20113;-79
2023/09/11 08:24:57;;;;;;;12.27;3.17;;;;;;;20.54;45.80;95577.22;5024744;28;20792;-80
2023/09/11 08:27:23;;;;;;;8.18;3.95;;;;;;;20.53;45.75;95557.59;5025549;28;20031;-79
2023/09/11 08:29:48;;;;;;;11.60;3.63;;;;;;;20.72;46.09;95566.03;5042565;28;20033;-80
2023/09/11 08:32:13;;;;;;;10.98;3.75;;;;;;;20.58;45.94;95541.25;5022426;28;20032;-78
2023/09/11 08:34:42;;;;;;;15.18;3.95;;;;;;;20.50;45.77;95539.41;5048077;28;20048;-80
2023/09/11 08:37:08;;;;;;;9.98;3.45;;;;;;;20.79;45.78;95560.91;5046488;28;20600;-79
2023/09/11 08:39:34;;;;;;;9.40;3.85;;;;;;;20.76;46.04;95536.50;5018229;28;20037;-78
2023/09/11 08:42:00;;;;;;;8.32;3.35;;;;;;;20.73;46.21;95513.69;5016028;28;20060;-77
2023/09/11 08:44:26;;;;;;;13.05;4.18;;;;;;;20.79;46.02;95525.84;5013151;28;20628;-77
2023/09/11 08:46:58;;;;;;;11.65;3.90;;;;;;;20.78;45.44;95508.09;5032573;28;20041;-79
2023/09/11 08:49:28;;;;;;;6.93;3.60;;;;;;;21.20;45.47;95563.94;5020586;28;20051;-79
2023/09/11 08:51:53;;;;;;;14.05;3.78;;;;;;;20.92;45.87;95523.22;5009936;28;20033;-80
2023/09/11 08:54:24;;;;;;;9.43;4.20;;;;;;;21.12;45.42;95528.59;5022965;28;20170;-77
2023/09/11 08:56:52;;;;;;;12.73;4.10;;;;;;;21.29;45.71;95543.81;5028162;28;20093;-77
2023/09/11 08:59:20;;;;;;;8.52;3.22;;;;;;;21.27;45.75;95529.91;5030212;28;20041;-78
2023/09/11 09:01:48;;;;;;;10.00;3.75;;;;;;;21.56;45.35;95555.94;5029587;28;20261;-75
2023/09/11 09:04:16;;;;;;;9.90;3.65;;;;;;;21.52;44.87;95528.84;5019392;28;20511;-77
2023/09/11 09:06:43;;;;;;;18.23;5.30;;;;;;;21.61;44.67;95534.13;5026477;28;20068;-77
2023/09/11 09:09:08;;;;;;;13.38;4.82;;;;;;;21.76;44.77;95544.28;5012736;28;20514;-75
2023/09/11 09:11:36;;;;;;;11.10;3.42;;;;;;;21.85;44.33;95538.78;5045870;28;20044;-77
2023/09/11 09:14:06;;;;;;;18.58;5.10;;;;;;;21.94;44.47;95545.66;5025476;28;20040;-77
2023/09/11 09:16:31;;;;;;;19.10;4.45;;;;;;;21.87;44.26;95515.75;5040363;28;20273;-78
2023/09/11 09:18:57;;;;;;;17.15;4.43;;;;;;;21.80;43.92;95493.91;5023013;28;20044;-78
2023/09/11 09:21:25;;;;;;;14.18;4.40;;;;;;;21.70;43.93;95471.97;5041959;28;20036;-76
2023/09/11 09:23:54;;;;;;;12.73;4.88;;;;;;;22.11;44.16;95542.00;5023617;28;20912;-78
2023/09/11 09:26:21;;;;;;;11.40;3.97;;;;;;;22.02;43.47;95516.22;5043382;28;20090;-78
2023/09/11 09:28:48;;;;;;;12.82;3.83;;;;;;;21.77;43.31;95485.69;5043420;28;20079;-77
2023/09/11 09:31:25;;;;;;;11.60;4.00;;;;;;;21.93;43.36;95497.41;5047945;28;20511;-78
2023/09/11 09:33:55;;;;;;;7.97;3.78;;;;;;;22.21;44.23;95524.53;5035072;28;20056;-77
2023/09/11 09:36:21;;;;;;;12.05;3.30;;;;;;;22.05;43.32;95491.25;5032780;28;21449;-78
2023/09/11 09:38:47;;;;;;;8.57;3.38;;;;;;;22.33;42.80;95511.81;5027625;28;20045;-78
2023/09/11 09:41:13;;;;;;;14.32;7.47;;;;;;;22.29;43.29;95502.78;5016718;28;20044;-77
2023/09/11 09:43:39;;;;;;;5.63;3.50;;;;;;;22.42;43.22;95510.91;5035127;28;20096;-78
2023/09/11 09:46:18;;;;;;;16.02;3.30;;;;;;;22.55;43.01;95515.16;5019292;28;20105;-78
2023/09/11 09:48:44;;;;;;;8.15;3.40;;;;;;;22.54;42.95;95494.66;5039469;28;20040;-76
2023/09/11 09:51:09;;;;;;;14.77;4.22;;;;;;;22.26;43.12;95443.28;5044120;28;20037;-77
2023/09/11 09:53:44;;;;;;;9.10;3.60;;;;;;;22.76;41.44;95501.50;5038438;28;20037;-78
2023/09/11 09:56:11;;;;;;;22.80;6.18;;;;;;;22.90;41.95;95466.72;5043301;28;20132;-78
2023/09/11 09:58:42;;;;;;;23.83;5.10;;;;;;;23.85;40.85;95493.63;5046984;28;20021;-79
2023/09/11 10:01:15;;;;;;;;;;;;;;;24.75;37.85;95488.28;5030686;28;20072;-78
2023/09/11 10:03:45;;;;;;;15.27;3.85;;;;;;;25.83;36.53;95484.56;5050602;28;19921;-78
2023/09/11 10:06:31;;;;;;;5.97;3.17;;;;;;;26.90;34.50;95487.72;5043575;28;20059;-78
2023/09/11 10:09:13;;;;;;;14.43;7.78;;;;;;;27.79;32.83;95455.97;5052554;28;20299;-78
2023/09/11 10:11:40;;;;;;;18.13;3.67;;;;;;;28.67;31.06;95461.28;5052490;28;20047;-78
2023/09/11 10:14:10;;;;;;;10.50;2.78;;;;;;;29.28;29.59;95451.38;5039889;28;20029;-77
2023/09/11 10:16:36;;;;;;;18.38;3.92;;;;;;;30.11;28.77;95481.97;5050143;28;20060;-78
2023/09/11 10:19:02;;;;;;;9.70;3.42;;;;;;;30.76;27.67;95480.69;5044780;28;20035;-77
2023/09/11 10:21:30;;;;;;;10.93;3.15;;;;;;;31.02;27.96;95441.09;5046353;28;20499;-77
2023/09/11 10:23:55;;;;;;;9.65;3.53;;;;;;;31.39;27.12;95468.72;5032056;28;20040;-77
2023/09/11 10:26:24;;;;;;;10.60;5.18;;;;;;;31.90;26.75;95471.94;5045485;28;20595;-78
2023/09/11 10:28:52;;;;;;;7.30;3.28;;;;;;;32.25;25.88;95468.16;5044132;28;20127;-79
2023/09/11 10:31:25;;;;;;;9.88;3.35;;;;;;;32.08;25.79;95456.91;5047092;28;20145;-76
2023/09/11 10:33:54;;;;;;;12.93;3.10;;;;;;;32.34;25.33;95450.03;5047501;28;20514;-77
2023/09/11 10:36:22;;;;;;;8.30;2.92;;;;;;;32.18;25.53;95458.03;5032632;28;20037;-76
2023/09/11 10:38:50;;;;;;;7.30;3.08;;;;;;;32.29;25.51;95455.94;5030575;28;20028;-76
2023/09/11 10:41:16;;;;;;;12.10;4.47;;;;;;;32.35;25.09;95453.53;5030417;28;20564;-78
2023/09/11 10:43:47;;;;;;;13.80;4.97;;;;;;;32.54;24.59;95418.06;5053453;28;20032;-77
2023/09/11 10:46:21;;;;;;;;;;;;;;;32.61;24.50;95446.59;5057617;28;20029;-79
2023/09/11 10:48:47;;;;;;;9.77;3.22;;;;;;;32.41;24.27;95438.22;5055175;28;19928;-79
2023/09/11 10:51:14;;;;;;;11.88;4.13;;;;;;;32.62;24.49;95424.25;5027346;28;20044;-79
2023/09/11 10:53:43;;;;;;;12.38;3.28;;;;;;;32.77;24.41;95422.13;5021388;28;20033;-79
2023/09/11 10:56:09;;;;;;;12.35;3.70;;;;;;;33.15;24.06;95436.56;5017779;28;20037;-79
2023/09/11 10:58:36;;;;;;;10.40;3.08;;;;;;;33.20;23.86;95403.94;5045060;28;20041;-79
2023/09/11 11:01:05;;;;;;;5.55;3.20;;;;;;;33.19;23.47;95418.06;5041934;28;20025;-79
2023/09/11 11:03:32;;;;;;;9.43;2.88;;;;;;;33.27;22.90;95436.03;5031299;28;20124;-79
2023/09/11 11:05:58;;;;;;;8.27;2.72;;;;;;;33.46;22.35;95435.38;5047033;28;20056;-79
2023/09/11 11:08:24;;;;;;;10.73;2.88;;;;;;;33.15;22.51;95417.34;5045239;28;20051;-79
2023/09/11 11:10:51;;;;;;;8.45;2.85;;;;;;;33.17;22.79;95409.47;5019663;28;20036;-78
2023/09/11 11:13:16;;;;;;;8.43;3.20;;;;;;;33.56;22.81;95417.97;5040320;28;20044;-80
2023/09/11 11:15:42;;;;;;;10.18;3.50;;;;;;;32.82;22.11;95366.75;5026838;28;20033;-80
2023/09/11 11:18:13;;;;;;;8.23;2.60;;;;;;;33.08;22.37;95417.44;5026932;28;20582;-78
2023/09/11 11:21:00;;;;;;;9.73;3.08;;;;;;;33.16;22.12;95416.94;5024158;28;20430;-78
2023/09/11 11:23:28;;;;;;;7.70;2.72;;;;;;;33.52;22.16;95414.47;5029405;28;20065;-78
2023/09/11 11:25:54;;;;;;;6.70;2.67;;;;;;;33.68;22.31;95408.34;5044822;28;20138;-78
2023/09/11 11:28:22;;;;;;;6.20;2.90;;;;;;;33.76;22.50;95412.56;5037960;28;20124;-78